createdAt,value
2022-09-21T04:25:43.153Z,0.857143
2022-09-21T04:26:43.186Z,0.857143
2022-09-21T04:27:43.224Z,0.857143
2022-09-21T04:28:43.257Z,1.71429
2022-09-21T04:29:43.295Z,2.5
2022-09-21T04:30:43.356Z,2.5
2022-09-21T04:31:43.367Z,3.35714
2022-09-21T04:32:43.407Z,4.21429
2022-09-21T04:33:43.440Z,5
2022-09-21T04:34:43.471Z,6.71429
2022-09-21T04:35:43.520Z,7.5
2022-09-21T04:36:43.582Z,9.21429
2022-09-21T04:37:43.600Z,10.8571
2022-09-21T04:38:43.640Z,12.5
2022-09-21T04:39:43.675Z,15
2022-09-21T04:40:43.713Z,17.5
2022-09-21T04:41:43.749Z,20
2022-09-21T04:42:43.794Z,22.5
2022-09-21T04:43:43.836Z,25.8571
2022-09-21T04:44:43.904Z,28.3571
2022-09-21T04:45:43.909Z,32.5
2022-09-21T04:46:43.950Z,35.8571
2022-09-21T04:47:43.979Z,40
2022-09-21T04:48:44.022Z,44.2143
2022-09-21T04:49:44.093Z,48.3571
2022-09-21T04:50:44.090Z,53.3571
2022-09-21T04:51:44.124Z,58.3571
2022-09-21T04:52:44.158Z,64.2143
2022-09-21T04:53:44.195Z,70
2022-09-21T04:54:44.252Z,75.8571
2022-09-21T04:55:44.267Z,82.5
2022-09-21T04:56:44.293Z,90
2022-09-21T04:57:44.327Z,97.5
2022-09-21T04:58:44.365Z,105
2022-09-21T04:59:44.422Z,113.357
2022-09-21T05:00:44.439Z,121.714
2022-09-21T05:01:44.517Z,130
2022-09-21T05:02:44.534Z,139.214
2022-09-21T05:03:44.634Z,149.214
2022-09-21T05:04:48.688Z,157.5
2022-09-21T05:05:44.617Z,167.5
2022-09-21T05:06:44.649Z,176.714
2022-09-21T05:07:44.683Z,186.714
2022-09-21T05:08:44.720Z,195.857
2022-09-21T05:09:44.752Z,205.857
2022-09-21T05:10:44.832Z,216.714
2022-09-21T05:11:44.826Z,225.857
2022-09-21T05:12:44.857Z,235
2022-09-21T05:13:44.891Z,245
2022-09-21T05:14:44.938Z,255
2022-09-21T05:15:45.011Z,264.214
2022-09-21T05:16:45.007Z,274.214
2022-09-21T05:17:45.039Z,284.214
2022-09-21T05:18:45.052Z,294.214
2022-09-21T05:19:45.085Z,304.214
2022-09-21T05:20:45.124Z,313.357
2022-09-21T05:21:45.159Z,323.357
2022-09-21T05:22:45.220Z,332.5
2022-09-21T05:23:45.228Z,343.357
2022-09-21T05:24:45.266Z,354.214
2022-09-21T05:25:45.301Z,364.214
2022-09-21T05:26:45.338Z,374.214
2022-09-21T05:27:45.393Z,384.214
2022-09-21T05:28:45.401Z,395
2022-09-21T05:29:45.442Z,405
2022-09-21T05:31:01.496Z,415
2022-09-21T05:31:45.559Z,427.5
2022-09-21T05:32:45.546Z,439.214
2022-09-21T05:33:45.578Z,453.357
2022-09-21T05:34:45.623Z,468.357
2022-09-21T05:35:45.647Z,480.857
2022-09-21T05:36:45.683Z,490
2022-09-21T05:37:45.725Z,496.714
2022-09-21T05:38:45.761Z,505.857
2022-09-21T05:39:45.839Z,511.714
2022-09-21T05:40:45.834Z,511.714
2022-09-21T05:41:45.866Z,513.357
2022-09-21T05:42:45.901Z,517.5
2022-09-21T05:43:45.941Z,528.357
2022-09-21T05:44:46.003Z,540
2022-09-21T05:45:47.765Z,531.714
2022-09-21T05:46:46.042Z,550
2022-09-21T05:47:46.075Z,573.357
2022-09-21T05:48:46.133Z,594.214
2022-09-21T05:49:46.147Z,609.214
2022-09-21T05:50:46.187Z,648.357
2022-09-21T05:51:46.223Z,729.214
2022-09-21T05:52:46.257Z,845.857
2022-09-21T05:53:46.297Z,968.357
2022-09-21T05:54:46.331Z,1063.36
2022-09-21T05:55:46.387Z,1117.5
2022-09-21T05:56:46.399Z,1077.5
2022-09-21T05:57:46.451Z,993.357
2022-09-21T05:58:46.468Z,971.714
2022-09-21T05:59:46.506Z,1013.36
2022-09-21T06:00:46.535Z,1148.36
2022-09-21T06:01:46.574Z,1315
2022-09-21T06:02:46.642Z,1405
2022-09-21T06:03:46.647Z,1326.71
2022-09-21T06:04:46.683Z,1320
2022-09-21T06:05:46.738Z,1336.71
2022-09-21T06:06:46.744Z,1335.86
2022-09-21T06:07:46.775Z,1239.21
2022-09-21T06:08:46.812Z,1258.36
2022-09-21T06:09:46.837Z,1273.36
2022-09-21T06:10:46.873Z,1325.86
2022-09-21T06:11:46.912Z,1312.5
2022-09-21T06:12:46.943Z,1339.21
2022-09-21T06:13:46.974Z,1269.21
2022-09-21T06:14:47.016Z,1355
2022-09-21T06:15:47.054Z,1335.86
2022-09-21T06:16:47.140Z,1388.36
2022-09-21T06:17:47.120Z,1460.86
2022-09-21T06:18:47.150Z,1561.71
2022-09-21T06:19:47.189Z,1667.5
2022-09-21T06:20:47.218Z,1730.86
2022-09-21T06:21:47.249Z,1750.86
2022-09-21T06:22:47.280Z,1770
2022-09-21T06:23:47.315Z,1778.36
2022-09-21T06:24:47.357Z,1767.5
2022-09-21T06:25:47.391Z,1742.5
2022-09-21T06:26:47.430Z,1684.21
2022-09-21T06:27:47.462Z,1640.86
2022-09-21T06:28:47.499Z,1585.86
2022-09-21T06:29:47.525Z,1540.86
2022-09-21T06:30:47.642Z,1519.21
2022-09-21T06:31:47.596Z,1509.21
2022-09-21T06:32:47.628Z,1540
2022-09-21T06:33:48.324Z,1555.86
2022-09-21T06:34:47.700Z,1564.21
2022-09-21T06:35:47.741Z,1547.5
2022-09-21T06:36:47.786Z,1494.21
2022-09-21T06:37:47.810Z,1460.86
2022-09-21T06:38:47.850Z,1468.36
2022-09-21T06:39:47.878Z,1520
2022-09-21T06:40:47.911Z,1539.21
2022-09-21T06:41:47.996Z,1589.21
2022-09-21T06:42:47.979Z,1601.71
2022-09-21T06:43:48.008Z,1660.86
2022-09-21T06:44:48.046Z,1738.36
2022-09-21T06:45:48.129Z,1813.36
2022-09-21T06:46:48.103Z,1916.71
2022-09-21T06:47:48.148Z,2033.36
2022-09-21T06:48:48.186Z,2055.86
2022-09-21T06:49:48.213Z,2110.86
2022-09-21T06:50:48.245Z,2158.36
2022-09-21T06:51:48.286Z,2195
2022-09-21T06:52:48.304Z,2169.21
2022-09-21T06:53:48.343Z,2151.71
2022-09-21T06:54:48.377Z,2149.21
2022-09-21T06:55:48.393Z,2178.36
2022-09-21T06:56:48.432Z,2129.21
2022-09-21T06:57:48.456Z,2076.71
2022-09-21T06:58:48.497Z,2019.21
2022-09-21T06:59:48.532Z,1900.86
2022-09-21T07:00:48.613Z,1694.21
2022-09-21T07:01:48.662Z,1400
2022-09-21T07:02:48.613Z,1126.71
2022-09-21T07:03:48.648Z,1027.5
2022-09-21T07:04:48.682Z,1055
2022-09-21T07:05:48.711Z,1115.86
2022-09-21T07:06:48.741Z,1255.86
2022-09-21T07:07:53.681Z,1310
2022-09-21T07:10:06.909Z,1484.21
2022-09-21T07:10:48.865Z,1640
2022-09-21T07:11:48.902Z,1713.36
2022-09-21T07:12:48.941Z,1670.86
2022-09-21T07:13:48.977Z,1526.71
2022-09-21T07:14:49.014Z,1463.36
2022-09-21T07:15:53.166Z,1518.36
2022-09-21T07:16:49.144Z,1610.86
2022-09-21T07:17:52.080Z,1782.5
2022-09-21T07:18:49.156Z,1870
2022-09-21T07:19:49.188Z,2028.36
2022-09-21T07:20:49.226Z,2219.21
2022-09-21T07:21:49.283Z,2322.5
2022-09-21T07:22:49.299Z,2432.5
2022-09-21T07:23:49.331Z,2682.5
2022-09-21T07:24:49.358Z,2854.21
2022-09-21T07:25:49.395Z,2858.36
2022-09-21T07:26:49.427Z,2850.86
2022-09-21T07:27:49.460Z,2593.36
2022-09-21T07:28:49.501Z,2496.71
2022-09-21T07:29:49.533Z,2621.71
2022-09-21T07:30:49.574Z,2566.71
2022-09-21T07:31:49.669Z,2355
2022-09-21T07:32:49.639Z,2257.5
2022-09-21T07:33:49.667Z,2216.71
2022-09-21T07:34:49.703Z,2184.21
2022-09-21T07:35:49.743Z,2140
2022-09-21T07:36:49.781Z,2153.36
2022-09-21T07:37:49.812Z,2157.5
2022-09-21T07:38:49.838Z,2251.71
2022-09-21T07:39:49.868Z,2118.36
2022-09-21T07:40:49.950Z,1860.86
2022-09-21T07:41:49.946Z,1530
2022-09-21T07:42:49.964Z,1340.86
2022-09-21T07:43:49.998Z,1240.86
2022-09-21T07:44:50.282Z,1165.86
2022-09-21T07:45:50.117Z,1152.5
2022-09-21T07:46:50.097Z,1202.5
2022-09-21T07:47:50.126Z,1259.21
2022-09-21T07:48:50.162Z,1343.36
2022-09-21T07:49:50.222Z,1477.5
2022-09-21T07:50:50.231Z,1680
2022-09-21T07:51:50.263Z,1924.21
2022-09-21T07:52:50.305Z,2347.5
2022-09-21T07:53:50.364Z,2704.21
2022-09-21T07:54:50.352Z,3063.36
2022-09-21T07:55:50.379Z,3184.21
2022-09-21T07:56:50.400Z,3187.5
2022-09-21T07:57:50.426Z,3118.36
2022-09-21T07:58:50.457Z,3100.86
2022-09-21T07:59:50.504Z,3003.36
2022-09-21T08:00:50.584Z,3008.36
2022-09-21T08:01:50.603Z,3063.36
2022-09-21T08:02:50.704Z,3161.71
2022-09-21T08:03:50.632Z,3395.86
2022-09-21T08:04:50.703Z,3510
2022-09-21T08:05:50.698Z,3593.36
2022-09-21T08:06:50.733Z,3362.5
2022-09-21T08:07:50.765Z,3140
2022-09-21T08:08:56.610Z,2920
2022-09-21T08:09:50.864Z,2555
2022-09-21T08:10:50.873Z,2049.21
2022-09-21T08:11:50.907Z,1653.36
2022-09-21T08:12:50.948Z,1401.71
2022-09-21T08:13:50.963Z,1305
2022-09-21T08:14:50.992Z,1191.71
2022-09-21T08:15:51.044Z,1190
2022-09-21T08:16:51.098Z,1115.86
2022-09-21T08:17:51.104Z,1039.21
2022-09-21T08:18:51.131Z,1120.86
2022-09-21T08:19:51.203Z,1176.71
2022-09-21T08:20:51.201Z,1160
2022-09-21T08:21:54.906Z,1130.86
2022-09-21T08:22:51.268Z,1067.5
2022-09-21T08:23:51.303Z,1075
2022-09-21T08:24:51.360Z,989.214
2022-09-21T08:25:51.358Z,987.5
2022-09-21T08:26:51.385Z,974.214
2022-09-21T08:27:51.411Z,973.357
2022-09-21T08:28:51.588Z,998.357
2022-09-21T08:29:51.474Z,1027.5
2022-09-21T08:30:51.520Z,1020.86
2022-09-21T08:31:51.615Z,981.714
2022-09-21T08:32:52.079Z,1017.5
2022-09-21T08:33:51.641Z,1000.86
2022-09-21T08:34:51.668Z,1045.86
2022-09-21T08:35:51.706Z,1008.36
2022-09-21T08:36:55.250Z,1064.21
2022-09-21T08:37:51.723Z,1046.71
2022-09-21T08:38:51.750Z,1101.71
2022-09-21T08:39:51.773Z,1168.36
2022-09-21T08:40:51.822Z,1286.71
2022-09-21T08:41:51.824Z,1407.5
2022-09-21T08:42:51.859Z,1457.5
2022-09-21T08:43:51.891Z,1546.71
2022-09-21T08:44:51.926Z,1700.86
2022-09-21T08:45:51.965Z,1984.21
2022-09-21T08:46:52.046Z,2395.86
2022-09-21T08:47:52.031Z,2974.21
2022-09-21T08:48:52.067Z,3562.5
2022-09-21T08:49:52.092Z,3930
2022-09-21T08:50:52.124Z,3927.5
2022-09-21T08:51:52.151Z,3776.71
2022-09-21T08:52:52.176Z,3631.71
2022-09-21T08:53:52.210Z,3558.36
2022-09-21T08:54:52.262Z,3494.21
2022-09-21T08:55:52.278Z,3463.36
2022-09-21T08:57:05.014Z,3389.21
2022-09-21T08:57:52.377Z,3125
2022-09-21T08:58:52.377Z,2810.86
2022-09-21T08:59:52.414Z,2446.71
2022-09-21T09:00:52.541Z,2071.71
2022-09-21T09:01:52.490Z,1791.71
2022-09-21T09:02:52.533Z,1517.5
2022-09-21T09:03:52.535Z,1277.5
2022-09-21T09:04:52.567Z,1106.71
2022-09-21T09:05:52.593Z,996.714
2022-09-21T09:06:52.626Z,890.857
2022-09-21T09:07:52.646Z,880.857
2022-09-21T09:08:52.685Z,897.5
2022-09-21T09:09:52.731Z,889.214
2022-09-21T09:10:52.751Z,898.357
2022-09-21T09:11:52.782Z,920
2022-09-21T09:12:52.829Z,912.5
2022-09-21T09:13:52.865Z,909.214
2022-09-21T09:14:52.901Z,896.714
2022-09-21T09:15:52.975Z,890
2022-09-21T09:16:52.974Z,894.214
2022-09-21T09:17:53.007Z,890.857
2022-09-21T09:18:53.044Z,880.857
2022-09-21T09:19:53.083Z,877.5
2022-09-21T09:20:53.115Z,886.714
2022-09-21T09:21:53.173Z,872.5
2022-09-21T09:22:53.183Z,889.214
2022-09-21T09:23:53.220Z,883.357
2022-09-21T09:24:53.260Z,875
2022-09-21T09:25:53.323Z,857.5
2022-09-21T09:26:53.331Z,845.857
2022-09-21T09:27:53.356Z,865.857
2022-09-21T09:28:53.409Z,886.714
2022-09-21T09:29:53.421Z,935
2022-09-21T09:30:53.453Z,1056.71
2022-09-21T09:31:53.503Z,1222.5
2022-09-21T09:32:53.521Z,1184.21
2022-09-21T09:33:53.561Z,1048.36
2022-09-21T09:34:53.587Z,970
2022-09-21T09:35:53.623Z,941.714
2022-09-21T09:36:58.773Z,916.714
2022-09-21T09:37:53.700Z,905
2022-09-21T09:38:53.728Z,944.214
2022-09-21T09:39:53.765Z,1259.21
2022-09-21T09:40:53.795Z,1476.71
2022-09-21T09:41:53.821Z,1212.5
2022-09-21T09:42:53.856Z,1275
2022-09-21T09:43:53.895Z,1864.21
2022-09-21T09:44:53.927Z,2301.71
2022-09-21T09:45:53.963Z,2755
2022-09-21T09:46:54.121Z,3061.71
2022-09-21T09:47:54.029Z,3348.36
2022-09-21T09:48:54.409Z,2925.86
2022-09-21T09:49:54.118Z,2308.36
2022-09-21T09:50:54.128Z,2049.21
2022-09-21T09:51:54.162Z,2053.36
2022-09-21T09:52:54.196Z,2326.71
2022-09-21T09:53:54.226Z,2868.36
2022-09-21T09:54:54.256Z,3508.36
2022-09-21T09:55:54.294Z,3745
2022-09-21T09:56:54.324Z,3645.86
2022-09-21T09:57:54.360Z,3483.36
2022-09-21T09:58:54.394Z,3253.36
2022-09-21T09:59:54.793Z,2990
2022-09-21T10:00:54.467Z,3035.86
2022-09-21T10:01:54.637Z,3398.36
2022-09-21T10:02:54.548Z,3335.86
2022-09-21T10:03:54.606Z,2995.86
2022-09-21T10:04:54.598Z,2812.5
2022-09-21T10:05:54.632Z,2645
2022-09-21T10:06:54.673Z,1640.86
2022-09-21T10:07:54.706Z,1510
2022-09-21T10:08:54.738Z,1571.71
2022-09-21T10:09:54.773Z,1658.36
2022-09-21T10:10:54.815Z,1578.36
2022-09-21T10:11:54.854Z,1390.86
2022-09-21T10:12:54.884Z,1280
2022-09-21T10:13:54.996Z,1183.36
2022-09-21T10:14:54.951Z,1042.5
2022-09-21T10:15:55.130Z,1069.21
2022-09-21T10:16:55.018Z,1125
2022-09-21T10:17:55.058Z,1285.86
2022-09-21T10:18:55.090Z,1551.71
2022-09-21T10:19:55.117Z,1730
2022-09-21T10:20:55.151Z,1740.86
2022-09-21T10:21:55.187Z,1681.71
2022-09-21T10:22:55.228Z,1488.36
2022-09-21T10:23:55.315Z,1300.86
2022-09-21T10:24:55.294Z,1221.71
2022-09-21T10:25:55.338Z,1272.5
2022-09-21T10:26:55.352Z,1542.5
2022-09-21T10:27:55.417Z,2118.36
2022-09-21T10:28:55.474Z,2895
2022-09-21T10:29:55.446Z,2920
2022-09-21T10:30:55.532Z,2912.5
2022-09-21T10:31:55.514Z,3335.86
2022-09-21T10:32:55.581Z,3419.21
2022-09-21T10:33:55.693Z,2997.5
2022-09-21T10:34:55.640Z,2785.86
2022-09-21T10:35:55.646Z,2627.5
2022-09-21T10:36:55.683Z,2304.21
2022-09-21T10:37:55.759Z,1998.36
2022-09-21T10:38:55.755Z,1866.71
2022-09-21T10:39:55.777Z,1688.36
2022-09-21T10:40:55.810Z,1473.36
2022-09-21T10:41:55.837Z,1369.21
2022-09-21T10:42:55.898Z,1390.86
2022-09-21T10:43:55.912Z,1442.5
2022-09-21T10:44:55.938Z,1537.5
2022-09-21T10:45:56.181Z,1489.21
2022-09-21T10:47:56.073Z,1610
2022-09-21T10:48:56.053Z,1829.21
2022-09-21T10:49:56.083Z,1992.5
2022-09-21T10:50:56.115Z,1906.71
2022-09-21T10:51:56.149Z,1804.21
2022-09-21T10:52:56.208Z,1720.86
2022-09-21T10:53:56.238Z,1687.5
2022-09-21T10:54:56.268Z,1735
2022-09-21T10:56:11.866Z,1688.36
2022-09-21T10:56:56.316Z,1540
2022-09-21T10:57:56.335Z,1490.86
2022-09-21T10:58:56.370Z,1481.71
2022-09-21T10:59:56.382Z,1735
2022-09-21T11:00:56.411Z,1899.21
2022-09-21T11:01:56.546Z,1817.5
2022-09-21T11:02:56.558Z,1590
2022-09-21T11:03:56.513Z,1478.36
2022-09-21T11:04:56.544Z,1450.86
2022-09-21T11:05:56.575Z,1376.71
2022-09-21T11:06:56.612Z,1286.71
2022-09-21T11:07:56.632Z,1170
2022-09-21T11:08:56.660Z,1025
2022-09-21T11:09:56.809Z,1016.71
2022-09-21T11:10:56.721Z,1063.36
2022-09-21T11:11:56.754Z,1038.36
2022-09-21T11:12:56.782Z,1020
2022-09-21T11:13:56.809Z,1043.36
2022-09-21T11:14:56.844Z,1075
2022-09-21T11:15:56.963Z,1164.21
2022-09-21T11:16:56.896Z,1417.5
2022-09-21T11:17:56.928Z,1907.5
2022-09-21T11:18:56.960Z,2208.36
2022-09-21T11:19:56.984Z,2090.86
2022-09-21T11:20:57.011Z,2266.71
2022-09-21T11:21:57.048Z,2263.36
2022-09-21T11:22:57.763Z,2112.5
2022-09-21T11:23:57.106Z,2047.5
2022-09-21T11:24:57.138Z,2089.21
2022-09-21T11:25:57.172Z,1951.71
2022-09-21T11:26:57.202Z,1777.5
2022-09-21T11:27:57.234Z,1700
2022-09-21T11:28:57.397Z,1638.36
2022-09-21T11:29:57.290Z,1713.36
2022-09-21T11:30:57.361Z,1974.21
2022-09-21T11:31:58.272Z,2156.71
2022-09-21T11:32:57.380Z,2371.71
2022-09-21T11:33:57.479Z,2581.71
2022-09-21T11:34:57.455Z,2638.36
2022-09-21T11:35:57.493Z,2580.86
2022-09-21T11:36:57.528Z,2464.21
2022-09-21T11:37:57.594Z,2131.71
2022-09-21T11:38:57.623Z,1780.86
2022-09-21T11:39:57.639Z,1677.5
2022-09-21T11:40:57.675Z,1660.86
2022-09-21T11:41:57.722Z,1746.71
2022-09-21T11:42:57.738Z,1902.5
2022-09-21T11:44:00.446Z,1977.5
2022-09-21T11:44:57.807Z,2065.86
2022-09-21T11:45:57.874Z,2085.86
2022-09-21T11:46:57.901Z,2044.21
2022-09-21T11:47:57.911Z,1764.21
2022-09-21T11:48:58.033Z,1509.21
2022-09-21T11:50:07.799Z,1295.86
2022-09-21T11:50:58.028Z,1116.71
2022-09-21T11:51:59.410Z,1064.21
2022-09-21T11:52:58.080Z,1120
2022-09-21T11:53:58.109Z,1217.5
2022-09-21T11:54:58.133Z,1293.36
2022-09-21T11:55:58.168Z,1313.36
2022-09-21T11:56:58.203Z,1330.86
2022-09-21T11:57:58.234Z,1484.21
2022-09-21T11:58:58.271Z,1825.86
2022-09-21T11:59:58.299Z,2092.5
2022-09-21T12:00:58.338Z,2464.21
2022-09-21T12:01:58.421Z,2880.86
2022-09-21T12:02:58.394Z,3020.86
2022-09-21T12:03:58.424Z,3076.71
2022-09-21T12:04:58.461Z,2995
2022-09-21T12:05:58.497Z,2947.5
2022-09-21T12:06:58.527Z,2861.71
2022-09-21T12:07:58.565Z,2597.5
2022-09-21T12:08:58.592Z,2246.71
2022-09-21T12:09:58.631Z,1783.36
2022-09-21T12:10:58.663Z,1290.86
2022-09-21T12:11:58.693Z,843.357
2022-09-21T12:12:58.726Z,573.357
2022-09-21T12:13:58.745Z,454.214
2022-09-21T12:14:58.820Z,398.357
2022-09-21T12:15:58.796Z,396.714
2022-09-21T12:16:58.885Z,440
2022-09-21T12:17:58.855Z,507.5
2022-09-21T12:18:58.920Z,608.357
2022-09-21T12:19:58.920Z,760.857
2022-09-21T12:20:58.955Z,979.214
2022-09-21T12:21:58.993Z,1026.71
2022-09-21T12:22:59.021Z,985
2022-09-21T12:23:59.077Z,960
2022-09-21T12:24:59.080Z,946.714
2022-09-21T12:25:59.112Z,855.857
2022-09-21T12:26:59.164Z,821.714
2022-09-21T12:27:59.171Z,816.714
2022-09-21T12:28:59.233Z,790.857
2022-09-21T12:29:59.242Z,783.357
2022-09-21T12:31:00.810Z,766.714
2022-09-21T12:31:59.307Z,739.214
2022-09-21T12:32:59.340Z,709.214
2022-09-21T12:33:59.397Z,695
2022-09-21T12:34:59.413Z,681.714
2022-09-21T12:35:59.442Z,680
2022-09-21T12:36:59.472Z,706.714
2022-09-21T12:37:59.503Z,730.857
2022-09-21T12:38:59.528Z,742.5
2022-09-21T12:39:59.589Z,753.357
2022-09-21T12:40:59.591Z,760.857
2022-09-21T12:41:59.624Z,762.5
2022-09-21T12:42:59.652Z,762.5
2022-09-21T12:43:59.712Z,757.5
2022-09-21T12:44:59.733Z,751.714
2022-09-21T12:45:59.836Z,747.5
2022-09-21T12:46:59.797Z,745
2022-09-21T12:47:59.832Z,746.714
2022-09-21T12:48:59.878Z,746.714
2022-09-21T12:49:59.894Z,750
2022-09-21T12:51:05.090Z,751.714
2022-09-21T12:51:59.960Z,755.857
2022-09-21T12:53:00.009Z,775.857
2022-09-21T12:54:00.077Z,794.214
2022-09-21T12:55:00.073Z,853.357
2022-09-21T12:56:00.100Z,1000
2022-09-21T12:57:00.122Z,1212.5
2022-09-21T12:58:15.085Z,1386.71
2022-09-21T12:59:00.183Z,1418.36
2022-09-21T13:00:00.236Z,1369.21
2022-09-21T13:01:00.386Z,1340.86
2022-09-21T13:02:00.404Z,1441.71
2022-09-21T13:03:00.320Z,1608.36
2022-09-21T13:04:00.352Z,1699.21
2022-09-21T13:05:00.407Z,1757.5
2022-09-21T13:06:00.416Z,1838.36
2022-09-21T13:07:00.447Z,2004.21
2022-09-21T13:08:00.506Z,2283.36
2022-09-21T13:09:00.512Z,2461.71
2022-09-21T13:10:00.545Z,2574.21
2022-09-21T13:11:00.577Z,2710.86
2022-09-21T13:12:00.606Z,2698.36
2022-09-21T13:13:00.644Z,2619.21
2022-09-21T13:14:00.668Z,2290
2022-09-21T13:15:00.707Z,1764.21
2022-09-21T13:16:00.735Z,1410
2022-09-21T13:17:00.770Z,1192.5
2022-09-21T13:18:00.808Z,1024.21
2022-09-21T13:19:00.836Z,976.714
2022-09-21T13:20:00.869Z,1013.36
2022-09-21T13:21:00.905Z,1105
2022-09-21T13:22:00.936Z,1188.36
2022-09-21T13:23:00.974Z,1148.36
2022-09-21T13:24:01.004Z,1016.71
2022-09-21T13:25:01.036Z,856.714
2022-09-21T13:26:01.063Z,770.857
2022-09-21T13:27:01.100Z,706.714
2022-09-21T13:28:01.141Z,650
2022-09-21T13:29:01.173Z,625.857
2022-09-21T13:30:01.200Z,643.357
2022-09-21T13:31:02.444Z,685.857
2022-09-21T13:32:01.277Z,800.857
2022-09-21T13:33:01.286Z,978.357
2022-09-21T13:34:01.312Z,1081.71
2022-09-21T13:35:01.373Z,1140
2022-09-21T13:36:01.388Z,1147.5
2022-09-21T13:37:01.426Z,1087.5
2022-09-21T13:38:01.450Z,991.714
2022-09-21T13:39:01.491Z,850.857
2022-09-21T13:40:01.642Z,738.357
2022-09-21T13:41:01.558Z,693.357
2022-09-21T13:42:03.147Z,690.857
2022-09-21T13:43:01.624Z,696.714
2022-09-21T13:44:04.387Z,695
2022-09-21T13:45:01.697Z,684.214
2022-09-21T13:46:01.792Z,678.357
2022-09-21T13:47:01.786Z,650
2022-09-21T13:48:01.794Z,616.714
2022-09-21T13:49:01.819Z,595.857
2022-09-21T13:50:01.852Z,584.214
2022-09-21T13:51:01.888Z,583.357
2022-09-21T13:52:01.924Z,586.714
2022-09-21T13:53:01.960Z,615
2022-09-21T13:54:01.998Z,622.5
2022-09-21T13:55:02.034Z,624.214
2022-09-21T13:56:02.069Z,624.214
2022-09-21T13:57:04.817Z,620.857
2022-09-21T13:58:02.132Z,612.5
2022-09-21T13:59:02.166Z,606.714
2022-09-21T14:00:02.203Z,605.857
2022-09-21T14:01:02.316Z,605
2022-09-21T14:02:02.403Z,603.357
2022-09-21T14:03:02.354Z,562.5
2022-09-21T14:04:02.368Z,554.214
2022-09-21T14:05:02.367Z,550.857
2022-09-21T14:06:02.405Z,552.5
2022-09-21T14:07:02.441Z,552.5
2022-09-21T14:08:02.527Z,554.214
2022-09-21T14:09:02.520Z,577.5
2022-09-21T14:10:02.554Z,583.357
2022-09-21T14:11:02.584Z,566.714
2022-09-21T14:12:02.609Z,560.857
2022-09-21T14:13:02.669Z,559.214
2022-09-21T14:14:02.673Z,561.714
2022-09-21T14:15:02.707Z,566.714
2022-09-21T14:16:02.780Z,578.357
2022-09-21T14:17:02.786Z,596.714
2022-09-21T14:18:02.839Z,624.214
2022-09-21T14:19:02.847Z,669.214
2022-09-21T14:20:02.887Z,713.357
2022-09-21T14:21:02.918Z,720
2022-09-21T14:22:02.956Z,747.5
2022-09-21T14:23:02.996Z,813.357
2022-09-21T14:24:03.018Z,960
2022-09-21T14:25:03.053Z,1126.71
2022-09-21T14:26:03.094Z,1327.5
2022-09-21T14:27:03.523Z,1508.36
2022-09-21T14:28:03.161Z,1679.21
2022-09-21T14:29:03.211Z,1760
2022-09-21T14:30:05.201Z,1752.5
2022-09-21T14:31:03.250Z,1805
2022-09-21T14:32:03.279Z,1985
2022-09-21T14:33:03.318Z,2233.36
2022-09-21T14:34:03.355Z,2556.71
2022-09-21T14:35:03.395Z,2739.21
2022-09-21T14:36:03.427Z,2789.21
2022-09-21T14:37:03.462Z,2680
2022-09-21T14:38:03.499Z,2347.5
2022-09-21T14:39:03.540Z,1877.5
2022-09-21T14:40:03.594Z,1598.36
2022-09-21T14:41:03.592Z,1471.71
2022-09-21T14:42:03.626Z,1397.5
2022-09-21T14:43:03.668Z,1295.86
2022-09-21T14:44:03.692Z,1179.21
2022-09-21T14:45:03.736Z,1128.36
2022-09-21T14:46:03.757Z,1220
2022-09-21T14:47:03.872Z,1255
2022-09-21T14:48:03.829Z,1187.5
2022-09-21T14:49:03.858Z,1169.21
2022-09-21T14:50:06.588Z,1117.5
2022-09-21T14:51:03.924Z,1013.36
2022-09-21T14:52:12.179Z,960
2022-09-21T14:53:03.984Z,986.714
2022-09-21T14:54:04.020Z,987.5
2022-09-21T14:55:04.051Z,1079.21
2022-09-21T14:56:04.074Z,1124.21
2022-09-21T14:57:04.111Z,1116.71
2022-09-21T14:58:04.148Z,1004.21
2022-09-21T14:59:04.181Z,855.857
2022-09-21T15:00:04.223Z,730
2022-09-21T15:01:04.293Z,650.857
2022-09-21T15:02:04.280Z,635
2022-09-21T15:03:04.313Z,629.214
2022-09-21T15:04:04.437Z,672.5
2022-09-21T15:05:04.380Z,748.357
2022-09-21T15:06:04.418Z,820.857
2022-09-21T15:07:04.453Z,922.5
2022-09-21T15:08:04.492Z,1070.86
2022-09-21T15:09:04.666Z,1225
2022-09-21T15:10:04.551Z,1324.21
2022-09-21T15:11:04.604Z,1325.86
2022-09-21T15:12:04.625Z,1230.86
2022-09-21T15:13:04.656Z,1135
2022-09-21T15:14:04.681Z,1093.36
2022-09-21T15:15:04.747Z,1127.5
2022-09-21T15:16:04.815Z,1181.71
2022-09-21T15:17:04.779Z,1305.86
2022-09-21T15:18:04.813Z,1551.71
2022-09-21T15:19:04.846Z,1860
2022-09-21T15:20:04.878Z,2237.5
2022-09-21T15:21:04.926Z,2561.71
2022-09-21T15:22:04.939Z,2773.36
2022-09-21T15:23:04.971Z,3024.21
2022-09-21T15:24:05.134Z,3082.5
2022-09-21T15:25:05.041Z,2859.21
2022-09-21T15:26:05.081Z,2717.5
2022-09-21T15:27:05.107Z,2618.36
2022-09-21T15:28:05.139Z,2548.36
2022-09-21T15:29:09.653Z,2526.71
2022-09-21T15:30:05.205Z,2499.21
2022-09-21T15:31:05.306Z,2365.86
2022-09-21T15:32:05.275Z,2338.36
2022-09-21T15:33:05.307Z,2348.36
2022-09-21T15:34:05.342Z,2236.71
2022-09-21T15:35:05.377Z,1975.86
2022-09-21T15:36:05.442Z,1601.71
2022-09-21T15:37:05.435Z,1273.36
2022-09-21T15:38:05.470Z,1046.71
2022-09-21T15:39:05.611Z,971.714
2022-09-21T15:40:05.603Z,1003.36
2022-09-21T15:41:08.446Z,1099.21
2022-09-21T15:42:05.607Z,1171.71
2022-09-21T15:43:05.664Z,1211.71
2022-09-21T15:44:05.688Z,1145
2022-09-21T15:45:05.730Z,965.857
2022-09-21T15:46:05.772Z,782.5
2022-09-21T15:47:05.868Z,642.5
2022-09-21T15:48:05.821Z,550
2022-09-21T15:49:05.849Z,480.857
2022-09-21T15:50:05.887Z,443.357
2022-09-21T15:51:05.955Z,429.214
2022-09-21T15:52:05.966Z,423.357
2022-09-21T15:53:05.989Z,418.357
2022-09-21T15:54:06.141Z,415.857
2022-09-21T15:55:06.059Z,413.357
2022-09-21T15:56:06.122Z,409.214
2022-09-21T15:57:08.359Z,405.857
2022-09-21T15:58:06.176Z,403.357
2022-09-21T15:59:06.207Z,400
2022-09-21T16:00:06.229Z,397.5
2022-09-21T16:01:06.410Z,394.214
2022-09-21T16:02:06.300Z,391.714
2022-09-21T16:03:06.336Z,388.357
2022-09-21T16:04:06.457Z,385.857
2022-09-21T16:05:06.401Z,382.5
2022-09-21T16:06:06.465Z,380
2022-09-21T16:07:06.470Z,377.5
2022-09-21T16:08:06.507Z,374.214
2022-09-21T16:09:06.642Z,370.857
2022-09-21T16:10:06.601Z,367.5
2022-09-21T16:11:06.660Z,362.5
2022-09-21T16:12:06.641Z,358.357
2022-09-21T16:13:06.673Z,354.214
2022-09-21T16:14:06.716Z,350.857
2022-09-21T16:15:06.752Z,346.714
2022-09-21T16:16:06.880Z,342.5
2022-09-21T16:17:06.831Z,338.357
2022-09-21T16:18:06.867Z,333.357
2022-09-21T16:19:06.897Z,329.214
2022-09-21T16:20:06.994Z,325.857
2022-09-21T16:21:06.995Z,320.857
2022-09-21T16:22:07.004Z,316.714
2022-09-21T16:23:07.041Z,311.714
2022-09-21T16:24:07.073Z,307.5
2022-09-21T16:25:07.112Z,302.5
2022-09-21T16:26:07.146Z,298.357
2022-09-21T16:27:07.202Z,293.357
2022-09-21T16:28:07.225Z,288.357
2022-09-21T16:29:07.285Z,283.357
2022-09-21T16:30:07.292Z,278.357
2022-09-21T16:31:07.386Z,273.357
2022-09-21T16:32:07.358Z,268.357
2022-09-21T16:33:07.401Z,262.5
2022-09-21T16:34:07.435Z,257.5
2022-09-21T16:35:07.462Z,251.714
2022-09-21T16:36:07.499Z,246.714
2022-09-21T16:37:07.537Z,240.857
2022-09-21T16:38:09.915Z,235.857
2022-09-21T16:39:11.451Z,230
2022-09-21T16:40:07.668Z,223.357
2022-09-21T16:41:07.677Z,217.5
2022-09-21T16:42:07.700Z,211.714
2022-09-21T16:43:07.744Z,205
2022-09-21T16:44:07.857Z,199.214
2022-09-21T16:45:07.807Z,192.5
2022-09-21T16:46:07.918Z,185.857
2022-09-21T16:47:07.921Z,179.214
2022-09-21T16:48:07.933Z,173.357
2022-09-21T16:49:07.949Z,166.714
2022-09-21T16:50:07.979Z,160